CheckWX is a tool to help pilots better visualize weather data.  It is not intended as a substitute for an official pre-flight weather briefing.

03:41:56 UTC

KDCA METAR
Ronald Reagan Washington National Airport
Washington, Virginia, USA
Current

50 mins ago

KDCA 230252Z 22012KT 10SM FEW060 BKN130 BKN150 OVC250 25/19 A2979 RMK AO2 LTG DSNT SE AND S SLP087 60003 T02500194 51003
Observed
Jul-23 @ 02:52 UTC
Wind
  • 220° at 12 KTS
Visibility
10 SM
Flight Rules
VFR
Cloud Levels
  • Few at 6,000' AGL
  • Broken at 13,000' AGL
  • Broken at 15,000' AGL
  • Overcast at 25,000' AGL
Temperature
25°C / 77°F
Dewpoint
19°C / 66°F
Humidity
69%
Altimeter
29.79" Hg
Pressure
1008.82 hPa
Previous

2 hours ago

KDCA 230152Z 20011KT 10SM FEW042 BKN110 BKN250 25/20 A2978 RMK AO2 RAE29 SLP084 P0003 T02500200
Observed
Jul-23 @ 01:52 UTC
Wind
  • 200° at 11 KTS
Visibility
10 SM
Flight Rules
VFR
Cloud Levels
  • Few at 4,200' AGL
  • Broken at 11,000' AGL
  • Broken at 25,000' AGL
Temperature
25°C / 77°F
Dewpoint
20°C / 68°F
Humidity
74%
Altimeter
29.78" Hg
Pressure
1008.42 hPa
Current Rain
0.03"
Previous

3 hours ago

KDCA 230052Z 21018G23KT 10SM RA SCT042CB BKN055 BKN120 BKN250 27/21 A2979 RMK AO2 PK WND 21027/0029 LTG DSNT S RAB39 SLP089 CB N-NE MOV NE P0000 T02670211
Observed
Jul-23 @ 00:52 UTC
Wind
  • 210° at 18 KTS
  • Gusting to 23 KTS
Visibility
10 SM
Flight Rules
VFR
Conditions
Rain
Cloud Levels
  • Scattered at 4,200' AGL
  • Broken at 5,500' AGL
  • Broken at 12,000' AGL
  • Broken at 25,000' AGL
Temperature
27°C / 81°F
Dewpoint
21°C / 70°F
Heat Index
29°C / 85°F
Humidity
70%
Altimeter
29.79" Hg
Pressure
1008.82 hPa
Current Rain
0.01"